sensor_id;sensor_type;location;lat;lon;timestamp;P1;durP1;ratioP1;P2;durP2;ratioP2
9238;SDS011;4654;43.242;27.976;2024-02-23T00:01:33;19.97;;;16.13;;
9238;SDS011;4654;43.242;27.976;2024-02-23T00:04:00;17.93;;;15.60;;
9238;SDS011;4654;43.242;27.976;2024-02-23T00:06:27;21.90;;;16.07;;
9238;SDS011;4654;43.242;27.976;2024-02-23T00:08:56;18.63;;;15.80;;
9238;SDS011;4654;43.242;27.976;2024-02-23T00:11:23;19.20;;;15.70;;
9238;SDS011;4654;43.242;27.976;2024-02-23T00:13:50;19.53;;;15.30;;
9238;SDS011;4654;43.242;27.976;2024-02-23T00:16:17;21.93;;;16.30;;
9238;SDS011;4654;43.242;27.976;2024-02-23T00:18:44;23.23;;;17.37;;
9238;SDS011;4654;43.242;27.976;2024-02-23T00:21:11;20.90;;;16.67;;
9238;SDS011;4654;43.242;27.976;2024-02-23T00:23:38;20.00;;;15.90;;
9238;SDS011;4654;43.242;27.976;2024-02-23T00:26:06;23.83;;;17.43;;
9238;SDS011;4654;43.242;27.976;2024-02-23T00:28:34;23.77;;;17.33;;
9238;SDS011;4654;43.242;27.976;2024-02-23T00:31:00;23.43;;;17.30;;
9238;SDS011;4654;43.242;27.976;2024-02-23T00:33:27;23.07;;;17.43;;
9238;SDS011;4654;43.242;27.976;2024-02-23T00:35:54;25.20;;;19.03;;
9238;SDS011;4654;43.242;27.976;2024-02-23T00:38:21;24.27;;;18.80;;
9238;SDS011;4654;43.242;27.976;2024-02-23T00:40:48;24.33;;;19.20;;
9238;SDS011;4654;43.242;27.976;2024-02-23T00:43:18;26.90;;;18.47;;
9238;SDS011;4654;43.242;27.976;2024-02-23T00:45:45;23.00;;;18.50;;
9238;SDS011;4654;43.242;27.976;2024-02-23T00:48:12;26.37;;;18.50;;
9238;SDS011;4654;43.242;27.976;2024-02-23T00:50:39;26.33;;;18.83;;
9238;SDS011;4654;43.242;27.976;2024-02-23T00:53:06;25.60;;;20.17;;
9238;SDS011;4654;43.242;27.976;2024-02-23T00:55:33;27.17;;;20.03;;
9238;SDS011;4654;43.242;27.976;2024-02-23T00:58:00;26.77;;;19.23;;
9238;SDS011;4654;43.242;27.976;2024-02-23T01:00:28;24.10;;;18.40;;
9238;SDS011;4654;43.242;27.976;2024-02-23T01:02:55;25.27;;;19.43;;
9238;SDS011;4654;43.242;27.976;2024-02-23T01:05:24;26.10;;;18.97;;
9238;SDS011;4654;43.242;27.976;2024-02-23T01:07:51;25.67;;;18.13;;
9238;SDS011;4654;43.242;27.976;2024-02-23T01:10:18;25.80;;;18.63;;
9238;SDS011;4654;43.242;27.976;2024-02-23T01:12:45;26.03;;;19.17;;
9238;SDS011;4654;43.242;27.976;2024-02-23T01:15:12;26.27;;;19.17;;
9238;SDS011;4654;43.242;27.976;2024-02-23T01:17:40;24.50;;;19.27;;
9238;SDS011;4654;43.242;27.976;2024-02-23T01:20:07;25.07;;;19.27;;
9238;SDS011;4654;43.242;27.976;2024-02-23T01:22:34;27.10;;;19.60;;
9238;SDS011;4654;43.242;27.976;2024-02-23T01:25:01;26.03;;;19.70;;
9238;SDS011;4654;43.242;27.976;2024-02-23T01:27:28;27.10;;;20.13;;
9238;SDS011;4654;43.242;27.976;2024-02-23T01:29:54;26.03;;;19.80;;
9238;SDS011;4654;43.242;27.976;2024-02-23T01:32:21;26.20;;;20.30;;
9238;SDS011;4654;43.242;27.976;2024-02-23T01:34:50;27.30;;;20.13;;
9238;SDS011;4654;43.242;27.976;2024-02-23T01:37:17;30.00;;;21.13;;
9238;SDS011;4654;43.242;27.976;2024-02-23T01:39:44;30.27;;;21.13;;
9238;SDS011;4654;43.242;27.976;2024-02-23T01:42:11;28.90;;;20.60;;
9238;SDS011;4654;43.242;27.976;2024-02-23T01:44:38;25.67;;;20.00;;
9238;SDS011;4654;43.242;27.976;2024-02-23T01:47:04;26.93;;;20.20;;
9238;SDS011;4654;43.242;27.976;2024-02-23T01:49:31;27.27;;;21.00;;
9238;SDS011;4654;43.242;27.976;2024-02-23T01:52:00;29.07;;;20.57;;
9238;SDS011;4654;43.242;27.976;2024-02-23T01:54:28;27.53;;;19.87;;
9238;SDS011;4654;43.242;27.976;2024-02-23T01:56:56;26.93;;;20.00;;
9238;SDS011;4654;43.242;27.976;2024-02-23T01:59:23;28.33;;;20.23;;
9238;SDS011;4654;43.242;27.976;2024-02-23T02:01:51;28.10;;;20.13;;
9238;SDS011;4654;43.242;27.976;2024-02-23T02:04:18;28.10;;;19.53;;
9238;SDS011;4654;43.242;27.976;2024-02-23T02:06:45;29.50;;;20.47;;
9238;SDS011;4654;43.242;27.976;2024-02-23T02:09:14;31.67;;;21.57;;
9238;SDS011;4654;43.242;27.976;2024-02-23T02:11:44;34.53;;;22.70;;
9238;SDS011;4654;43.242;27.976;2024-02-23T02:14:11;35.63;;;22.17;;
9238;SDS011;4654;43.242;27.976;2024-02-23T02:16:38;29.70;;;21.53;;
9238;SDS011;4654;43.242;27.976;2024-02-23T02:19:05;31.40;;;22.07;;
9238;SDS011;4654;43.242;27.976;2024-02-23T02:21:32;30.90;;;21.27;;
9238;SDS011;4654;43.242;27.976;2024-02-23T02:23:59;32.27;;;22.40;;
9238;SDS011;4654;43.242;27.976;2024-02-23T02:26:28;35.27;;;23.73;;
9238;SDS011;4654;43.242;27.976;2024-02-23T02:28:54;33.57;;;23.40;;
9238;SDS011;4654;43.242;27.976;2024-02-23T02:31:21;35.00;;;22.83;;
9238;SDS011;4654;43.242;27.976;2024-02-23T02:33:48;32.23;;;23.90;;
9238;SDS011;4654;43.242;27.976;2024-02-23T02:36:15;33.33;;;22.57;;
9238;SDS011;4654;43.242;27.976;2024-02-23T02:38:42;31.40;;;22.83;;
9238;SDS011;4654;43.242;27.976;2024-02-23T02:41:09;31.90;;;21.93;;
9238;SDS011;4654;43.242;27.976;2024-02-23T02:43:37;32.40;;;23.60;;
9238;SDS011;4654;43.242;27.976;2024-02-23T02:46:04;30.23;;;22.77;;
9238;SDS011;4654;43.242;27.976;2024-02-23T02:48:31;33.63;;;24.10;;
9238;SDS011;4654;43.242;27.976;2024-02-23T02:50:58;32.30;;;23.10;;
9238;SDS011;4654;43.242;27.976;2024-02-23T02:53:24;30.73;;;23.37;;
9238;SDS011;4654;43.242;27.976;2024-02-23T02:55:51;31.07;;;22.37;;
9238;SDS011;4654;43.242;27.976;2024-02-23T02:58:18;33.07;;;22.77;;
9238;SDS011;4654;43.242;27.976;2024-02-23T03:00:47;33.20;;;23.13;;
9238;SDS011;4654;43.242;27.976;2024-02-23T03:03:13;31.73;;;22.70;;
9238;SDS011;4654;43.242;27.976;2024-02-23T03:05:40;31.83;;;23.93;;
9238;SDS011;4654;43.242;27.976;2024-02-23T03:08:07;29.30;;;22.17;;
9238;SDS011;4654;43.242;27.976;2024-02-23T03:10:34;36.67;;;23.73;;
9238;SDS011;4654;43.242;27.976;2024-02-23T03:13:01;32.77;;;23.03;;
9238;SDS011;4654;43.242;27.976;2024-02-23T03:15:28;31.33;;;23.40;;
9238;SDS011;4654;43.242;27.976;2024-02-23T03:17:56;29.27;;;22.07;;
9238;SDS011;4654;43.242;27.976;2024-02-23T03:20:23;30.83;;;23.00;;
9238;SDS011;4654;43.242;27.976;2024-02-23T03:22:50;32.87;;;23.33;;
9238;SDS011;4654;43.242;27.976;2024-02-23T03:25:18;31.70;;;23.27;;
9238;SDS011;4654;43.242;27.976;2024-02-23T03:27:45;32.03;;;22.60;;
9238;SDS011;4654;43.242;27.976;2024-02-23T03:30:12;30.63;;;22.27;;
9238;SDS011;4654;43.242;27.976;2024-02-23T03:32:39;29.50;;;22.33;;
9238;SDS011;4654;43.242;27.976;2024-02-23T03:35:09;31.17;;;22.83;;
9238;SDS011;4654;43.242;27.976;2024-02-23T03:37:36;29.77;;;21.97;;
9238;SDS011;4654;43.242;27.976;2024-02-23T03:40:02;29.30;;;21.10;;
9238;SDS011;4654;43.242;27.976;2024-02-23T03:42:30;29.67;;;21.97;;
9238;SDS011;4654;43.242;27.976;2024-02-23T03:44:56;27.50;;;21.70;;
9238;SDS011;4654;43.242;27.976;2024-02-23T03:47:23;30.30;;;22.73;;
9238;SDS011;4654;43.242;27.976;2024-02-23T03:49:50;30.73;;;22.50;;
9238;SDS011;4654;43.242;27.976;2024-02-23T03:52:18;37.83;;;24.37;;
9238;SDS011;4654;43.242;27.976;2024-02-23T03:54:45;33.57;;;23.47;;
9238;SDS011;4654;43.242;27.976;2024-02-23T03:57:12;31.87;;;23.77;;
9238;SDS011;4654;43.242;27.976;2024-02-23T03:59:40;31.40;;;23.07;;
9238;SDS011;4654;43.242;27.976;2024-02-23T04:02:17;33.43;;;24.47;;
9238;SDS011;4654;43.242;27.976;2024-02-23T04:04:44;33.73;;;23.83;;
9238;SDS011;4654;43.242;27.976;2024-02-23T04:07:11;34.77;;;24.67;;
9238;SDS011;4654;43.242;27.976;2024-02-23T04:09:39;33.60;;;24.07;;
9238;SDS011;4654;43.242;27.976;2024-02-23T04:12:06;35.00;;;23.80;;
9238;SDS011;4654;43.242;27.976;2024-02-23T04:14:33;35.57;;;25.03;;
9238;SDS011;4654;43.242;27.976;2024-02-23T04:17:01;31.20;;;23.30;;
9238;SDS011;4654;43.242;27.976;2024-02-23T04:19:28;38.70;;;24.90;;
9238;SDS011;4654;43.242;27.976;2024-02-23T04:21:55;35.60;;;24.03;;
9238;SDS011;4654;43.242;27.976;2024-02-23T04:24:22;36.67;;;26.60;;
9238;SDS011;4654;43.242;27.976;2024-02-23T04:26:50;34.70;;;24.67;;
9238;SDS011;4654;43.242;27.976;2024-02-23T04:29:17;32.27;;;23.20;;
9238;SDS011;4654;43.242;27.976;2024-02-23T04:31:44;35.87;;;25.27;;
9238;SDS011;4654;43.242;27.976;2024-02-23T04:34:11;32.53;;;23.87;;
9238;SDS011;4654;43.242;27.976;2024-02-23T04:36:37;32.00;;;22.93;;
9238;SDS011;4654;43.242;27.976;2024-02-23T04:39:04;33.07;;;21.80;;
9238;SDS011;4654;43.242;27.976;2024-02-23T04:41:31;32.60;;;23.43;;
9238;SDS011;4654;43.242;27.976;2024-02-23T04:44:00;32.57;;;23.50;;
9238;SDS011;4654;43.242;27.976;2024-02-23T04:46:27;34.27;;;23.83;;
9238;SDS011;4654;43.242;27.976;2024-02-23T04:48:54;32.03;;;22.33;;
9238;SDS011;4654;43.242;27.976;2024-02-23T04:51:21;31.87;;;22.90;;
9238;SDS011;4654;43.242;27.976;2024-02-23T04:53:48;30.50;;;23.27;;
9238;SDS011;4654;43.242;27.976;2024-02-23T04:56:15;33.10;;;22.93;;
9238;SDS011;4654;43.242;27.976;2024-02-23T04:58:42;32.93;;;24.07;;
9238;SDS011;4654;43.242;27.976;2024-02-23T05:01:11;35.43;;;24.47;;
9238;SDS011;4654;43.242;27.976;2024-02-23T05:03:37;36.93;;;24.20;;
9238;SDS011;4654;43.242;27.976;2024-02-23T05:06:04;31.93;;;23.37;;
9238;SDS011;4654;43.242;27.976;2024-02-23T05:08:31;29.33;;;22.53;;
9238;SDS011;4654;43.242;27.976;2024-02-23T05:10:58;33.10;;;24.03;;
9238;SDS011;4654;43.242;27.976;2024-02-23T05:13:25;35.27;;;23.60;;
9238;SDS011;4654;43.242;27.976;2024-02-23T05:15:55;32.53;;;23.57;;
9238;SDS011;4654;43.242;27.976;2024-02-23T05:18:23;32.73;;;23.70;;
9238;SDS011;4654;43.242;27.976;2024-02-23T05:20:50;28.27;;;23.27;;
9238;SDS011;4654;43.242;27.976;2024-02-23T05:23:17;27.93;;;21.83;;
9238;SDS011;4654;43.242;27.976;2024-02-23T05:25:44;25.47;;;20.10;;
9238;SDS011;4654;43.242;27.976;2024-02-23T05:28:11;24.27;;;20.40;;
9238;SDS011;4654;43.242;27.976;2024-02-23T05:30:38;26.40;;;20.80;;
9238;SDS011;4654;43.242;27.976;2024-02-23T05:33:04;24.00;;;21.03;;
9238;SDS011;4654;43.242;27.976;2024-02-23T05:35:33;21.07;;;18.77;;
9238;SDS011;4654;43.242;27.976;2024-02-23T05:37:59;21.10;;;18.23;;
9238;SDS011;4654;43.242;27.976;2024-02-23T05:40:26;21.03;;;18.13;;
9238;SDS011;4654;43.242;27.976;2024-02-23T05:42:54;19.23;;;16.63;;
9238;SDS011;4654;43.242;27.976;2024-02-23T05:45:21;21.27;;;18.70;;
9238;SDS011;4654;43.242;27.976;2024-02-23T05:47:48;29.23;;;25.93;;
9238;SDS011;4654;43.242;27.976;2024-02-23T05:50:14;25.90;;;22.27;;
9238;SDS011;4654;43.242;27.976;2024-02-23T05:52:43;21.63;;;19.43;;
9238;SDS011;4654;43.242;27.976;2024-02-23T05:55:09;19.70;;;16.80;;
9238;SDS011;4654;43.242;27.976;2024-02-23T05:57:36;17.20;;;15.50;;
9238;SDS011;4654;43.242;27.976;2024-02-23T06:00:03;14.80;;;13.20;;
9238;SDS011;4654;43.242;27.976;2024-02-23T06:02:30;16.97;;;15.10;;
9238;SDS011;4654;43.242;27.976;2024-02-23T06:04:57;16.87;;;15.17;;
9238;SDS011;4654;43.242;27.976;2024-02-23T06:07:24;19.60;;;16.47;;
9238;SDS011;4654;43.242;27.976;2024-02-23T06:09:55;16.87;;;15.10;;
9238;SDS011;4654;43.242;27.976;2024-02-23T06:12:22;19.47;;;17.03;;
9238;SDS011;4654;43.242;27.976;2024-02-23T06:17:16;22.13;;;19.73;;
9238;SDS011;4654;43.242;27.976;2024-02-23T06:19:43;19.07;;;16.87;;
9238;SDS011;4654;43.242;27.976;2024-02-23T06:22:10;22.27;;;18.50;;
9238;SDS011;4654;43.242;27.976;2024-02-23T06:24:37;20.90;;;18.00;;
9238;SDS011;4654;43.242;27.976;2024-02-23T06:27:05;20.17;;;16.97;;
9238;SDS011;4654;43.242;27.976;2024-02-23T06:29:33;19.45;;;17.52;;
9238;SDS011;4654;43.242;27.976;2024-02-23T06:32:00;18.13;;;16.33;;
9238;SDS011;4654;43.242;27.976;2024-02-23T06:34:28;14.57;;;12.57;;
9238;SDS011;4654;43.242;27.976;2024-02-23T06:36:55;14.52;;;13.00;;
9238;SDS011;4654;43.242;27.976;2024-02-23T06:39:22;13.73;;;12.27;;
9238;SDS011;4654;43.242;27.976;2024-02-23T06:41:48;14.15;;;12.75;;
9238;SDS011;4654;43.242;27.976;2024-02-23T06:44:15;12.40;;;11.25;;
9238;SDS011;4654;43.242;27.976;2024-02-23T06:46:42;12.25;;;11.13;;
9238;SDS011;4654;43.242;27.976;2024-02-23T06:49:10;12.88;;;10.93;;
9238;SDS011;4654;43.242;27.976;2024-02-23T06:51:37;13.30;;;11.98;;
9238;SDS011;4654;43.242;27.976;2024-02-23T06:54:05;14.23;;;12.73;;
9238;SDS011;4654;43.242;27.976;2024-02-23T06:56:33;13.43;;;12.13;;
9238;SDS011;4654;43.242;27.976;2024-02-23T06:59:01;14.30;;;12.80;;
9238;SDS011;4654;43.242;27.976;2024-02-23T07:01:29;14.82;;;13.32;;
9238;SDS011;4654;43.242;27.976;2024-02-23T07:03:56;14.98;;;13.40;;
9238;SDS011;4654;43.242;27.976;2024-02-23T07:06:23;14.23;;;12.70;;
9238;SDS011;4654;43.242;27.976;2024-02-23T07:08:50;14.90;;;12.98;;
9238;SDS011;4654;43.242;27.976;2024-02-23T07:11:17;17.40;;;13.63;;
9238;SDS011;4654;43.242;27.976;2024-02-23T07:13:44;14.67;;;13.07;;
9238;SDS011;4654;43.242;27.976;2024-02-23T07:16:11;14.90;;;13.40;;
9238;SDS011;4654;43.242;27.976;2024-02-23T07:18:39;16.23;;;13.47;;
9238;SDS011;4654;43.242;27.976;2024-02-23T07:21:06;17.93;;;14.27;;
9238;SDS011;4654;43.242;27.976;2024-02-23T07:23:33;15.17;;;13.57;;
9238;SDS011;4654;43.242;27.976;2024-02-23T07:26:00;18.03;;;14.33;;
9238;SDS011;4654;43.242;27.976;2024-02-23T07:28:27;15.30;;;13.73;;
9238;SDS011;4654;43.242;27.976;2024-02-23T07:30:54;20.23;;;15.23;;
9238;SDS011;4654;43.242;27.976;2024-02-23T07:33:21;17.30;;;13.63;;
9238;SDS011;4654;43.242;27.976;2024-02-23T07:35:49;18.50;;;15.23;;
9238;SDS011;4654;43.242;27.976;2024-02-23T07:38:16;17.30;;;14.50;;
9238;SDS011;4654;43.242;27.976;2024-02-23T07:40:43;16.83;;;14.63;;
9238;SDS011;4654;43.242;27.976;2024-02-23T07:43:10;18.37;;;14.67;;
9238;SDS011;4654;43.242;27.976;2024-02-23T07:45:38;16.23;;;14.47;;
9238;SDS011;4654;43.242;27.976;2024-02-23T07:48:04;16.73;;;14.70;;
9238;SDS011;4654;43.242;27.976;2024-02-23T07:50:31;18.70;;;15.37;;
9238;SDS011;4654;43.242;27.976;2024-02-23T07:52:59;16.27;;;14.57;;
9238;SDS011;4654;43.242;27.976;2024-02-23T07:55:26;15.87;;;14.13;;
9238;SDS011;4654;43.242;27.976;2024-02-23T07:57:53;14.18;;;12.68;;
9238;SDS011;4654;43.242;27.976;2024-02-23T08:00:26;14.23;;;12.80;;
9238;SDS011;4654;43.242;27.976;2024-02-23T08:02:53;15.02;;;12.40;;
9238;SDS011;4654;43.242;27.976;2024-02-23T08:05:22;13.93;;;12.60;;
9238;SDS011;4654;43.242;27.976;2024-02-23T08:07:48;13.98;;;12.65;;
9238;SDS011;4654;43.242;27.976;2024-02-23T08:10:17;13.13;;;11.82;;
9238;SDS011;4654;43.242;27.976;2024-02-23T08:12:44;13.07;;;11.88;;
9238;SDS011;4654;43.242;27.976;2024-02-23T08:15:10;13.02;;;11.73;;
9238;SDS011;4654;43.242;27.976;2024-02-23T08:17:37;13.32;;;11.82;;
9238;SDS011;4654;43.242;27.976;2024-02-23T08:20:04;13.57;;;12.35;;
9238;SDS011;4654;43.242;27.976;2024-02-23T08:22:31;12.80;;;11.52;;
9238;SDS011;4654;43.242;27.976;2024-02-23T08:24:58;13.25;;;11.95;;
9238;SDS011;4654;43.242;27.976;2024-02-23T08:27:26;14.73;;;12.82;;
9238;SDS011;4654;43.242;27.976;2024-02-23T08:29:53;13.43;;;12.23;;
9238;SDS011;4654;43.242;27.976;2024-02-23T08:32:20;12.70;;;11.60;;
9238;SDS011;4654;43.242;27.976;2024-02-23T08:34:47;12.95;;;11.75;;
9238;SDS011;4654;43.242;27.976;2024-02-23T08:37:13;13.20;;;11.88;;
9238;SDS011;4654;43.242;27.976;2024-02-23T08:39:40;13.18;;;11.63;;
9238;SDS011;4654;43.242;27.976;2024-02-23T08:42:07;11.90;;;10.68;;
9238;SDS011;4654;43.242;27.976;2024-02-23T08:44:35;12.07;;;10.88;;
9238;SDS011;4654;43.242;27.976;2024-02-23T08:47:04;12.45;;;11.30;;
9238;SDS011;4654;43.242;27.976;2024-02-23T08:49:31;12.70;;;11.60;;
9238;SDS011;4654;43.242;27.976;2024-02-23T08:51:58;12.38;;;11.27;;
9238;SDS011;4654;43.242;27.976;2024-02-23T08:54:25;12.55;;;11.23;;
9238;SDS011;4654;43.242;27.976;2024-02-23T08:56:51;11.95;;;10.82;;
9238;SDS011;4654;43.242;27.976;2024-02-23T08:59:18;12.80;;;11.70;;
9238;SDS011;4654;43.242;27.976;2024-02-23T09:01:46;13.13;;;11.82;;
9238;SDS011;4654;43.242;27.976;2024-02-23T09:04:13;13.00;;;11.80;;
9238;SDS011;4654;43.242;27.976;2024-02-23T09:06:40;14.35;;;12.95;;
9238;SDS011;4654;43.242;27.976;2024-02-23T09:09:07;14.38;;;13.00;;
9238;SDS011;4654;43.242;27.976;2024-02-23T09:11:35;13.68;;;12.48;;
9238;SDS011;4654;43.242;27.976;2024-02-23T09:14:02;13.15;;;12.02;;
9238;SDS011;4654;43.242;27.976;2024-02-23T09:16:29;14.27;;;12.98;;
9238;SDS011;4654;43.242;27.976;2024-02-23T09:18:57;16.48;;;13.73;;
9238;SDS011;4654;43.242;27.976;2024-02-23T09:21:24;14.40;;;12.88;;
9238;SDS011;4654;43.242;27.976;2024-02-23T09:23:51;13.35;;;11.98;;
9238;SDS011;4654;43.242;27.976;2024-02-23T09:26:17;14.10;;;12.75;;
9238;SDS011;4654;43.242;27.976;2024-02-23T09:28:44;13.57;;;12.23;;
9238;SDS011;4654;43.242;27.976;2024-02-23T09:31:11;12.60;;;11.32;;
9238;SDS011;4654;43.242;27.976;2024-02-23T09:33:38;12.23;;;11.00;;
9238;SDS011;4654;43.242;27.976;2024-02-23T09:36:06;12.65;;;11.45;;
9238;SDS011;4654;43.242;27.976;2024-02-23T09:38:35;12.07;;;10.80;;
9238;SDS011;4654;43.242;27.976;2024-02-23T09:41:01;11.82;;;10.63;;
9238;SDS011;4654;43.242;27.976;2024-02-23T09:43:28;12.57;;;11.38;;
9238;SDS011;4654;43.242;27.976;2024-02-23T09:45:57;12.07;;;10.93;;
9238;SDS011;4654;43.242;27.976;2024-02-23T09:48:24;11.57;;;10.45;;
9238;SDS011;4654;43.242;27.976;2024-02-23T09:50:51;12.30;;;11.02;;
9238;SDS011;4654;43.242;27.976;2024-02-23T09:53:20;12.07;;;11.02;;
9238;SDS011;4654;43.242;27.976;2024-02-23T09:58:14;12.18;;;11.05;;
9238;SDS011;4654;43.242;27.976;2024-02-23T10:00:42;11.82;;;10.85;;
9238;SDS011;4654;43.242;27.976;2024-02-23T10:03:10;11.80;;;10.80;;
9238;SDS011;4654;43.242;27.976;2024-02-23T10:05:37;12.45;;;11.25;;
9238;SDS011;4654;43.242;27.976;2024-02-23T10:08:04;11.38;;;10.27;;
9238;SDS011;4654;43.242;27.976;2024-02-23T10:10:33;12.00;;;10.50;;
9238;SDS011;4654;43.242;27.976;2024-02-23T10:13:02;11.30;;;10.40;;
9238;SDS011;4654;43.242;27.976;2024-02-23T10:15:30;11.90;;;10.80;;
9238;SDS011;4654;43.242;27.976;2024-02-23T10:17:57;12.27;;;11.00;;
9238;SDS011;4654;43.242;27.976;2024-02-23T10:20:24;12.23;;;10.60;;
9238;SDS011;4654;43.242;27.976;2024-02-23T10:22:51;12.13;;;11.02;;
9238;SDS011;4654;43.242;27.976;2024-02-23T10:25:19;12.27;;;11.07;;
9238;SDS011;4654;43.242;27.976;2024-02-23T10:27:47;11.93;;;10.80;;
9238;SDS011;4654;43.242;27.976;2024-02-23T10:30:14;12.00;;;10.85;;
9238;SDS011;4654;43.242;27.976;2024-02-23T10:32:41;11.82;;;10.63;;
9238;SDS011;4654;43.242;27.976;2024-02-23T10:35:09;11.10;;;10.00;;
9238;SDS011;4654;43.242;27.976;2024-02-23T10:37:36;12.18;;;10.13;;
9238;SDS011;4654;43.242;27.976;2024-02-23T10:40:03;11.63;;;10.07;;
9238;SDS011;4654;43.242;27.976;2024-02-23T10:42:34;12.63;;;11.35;;
9238;SDS011;4654;43.242;27.976;2024-02-23T10:45:04;12.88;;;11.52;;
9238;SDS011;4654;43.242;27.976;2024-02-23T10:47:32;13.63;;;12.38;;
9238;SDS011;4654;43.242;27.976;2024-02-23T10:50:00;12.82;;;11.52;;
9238;SDS011;4654;43.242;27.976;2024-02-23T10:52:27;13.13;;;11.93;;
9238;SDS011;4654;43.242;27.976;2024-02-23T10:54:54;12.85;;;11.50;;
9238;SDS011;4654;43.242;27.976;2024-02-23T10:57:22;12.23;;;11.02;;
9238;SDS011;4654;43.242;27.976;2024-02-23T10:59:48;12.10;;;10.82;;
9238;SDS011;4654;43.242;27.976;2024-02-23T11:02:18;12.88;;;11.48;;
9238;SDS011;4654;43.242;27.976;2024-02-23T11:04:45;11.90;;;9.65;;
9238;SDS011;4654;43.242;27.976;2024-02-23T11:07:15;13.40;;;10.35;;
9238;SDS011;4654;43.242;27.976;2024-02-23T11:09:42;14.43;;;10.77;;
9238;SDS011;4654;43.242;27.976;2024-02-23T11:12:10;12.98;;;10.82;;
9238;SDS011;4654;43.242;27.976;2024-02-23T11:14:37;10.77;;;9.68;;
9238;SDS011;4654;43.242;27.976;2024-02-23T11:17:04;11.43;;;10.33;;
9238;SDS011;4654;43.242;27.976;2024-02-23T11:19:33;13.13;;;10.70;;
9238;SDS011;4654;43.242;27.976;2024-02-23T11:22:01;16.90;;;11.33;;
9238;SDS011;4654;43.242;27.976;2024-02-23T11:24:28;13.50;;;11.33;;
9238;SDS011;4654;43.242;27.976;2024-02-23T11:26:56;14.33;;;10.70;;
9238;SDS011;4654;43.242;27.976;2024-02-23T11:29:25;16.57;;;11.83;;
9238;SDS011;4654;43.242;27.976;2024-02-23T11:31:52;13.13;;;11.80;;
9238;SDS011;4654;43.242;27.976;2024-02-23T11:34:22;14.10;;;12.10;;
9238;SDS011;4654;43.242;27.976;2024-02-23T11:36:51;15.13;;;11.53;;
9238;SDS011;4654;43.242;27.976;2024-02-23T11:39:19;15.57;;;11.40;;
9238;SDS011;4654;43.242;27.976;2024-02-23T11:41:47;15.30;;;11.73;;
9238;SDS011;4654;43.242;27.976;2024-02-23T11:44:14;17.47;;;12.43;;
9238;SDS011;4654;43.242;27.976;2024-02-23T11:46:42;16.87;;;12.23;;
9238;SDS011;4654;43.242;27.976;2024-02-23T11:49:10;16.13;;;12.53;;
9238;SDS011;4654;43.242;27.976;2024-02-23T11:51:37;14.67;;;12.47;;
9238;SDS011;4654;43.242;27.976;2024-02-23T11:54:05;13.87;;;12.47;;
9238;SDS011;4654;43.242;27.976;2024-02-23T11:56:32;14.50;;;12.77;;
9238;SDS011;4654;43.242;27.976;2024-02-23T11:58:59;14.43;;;12.70;;
9238;SDS011;4654;43.242;27.976;2024-02-23T12:01:28;14.77;;;12.97;;
9238;SDS011;4654;43.242;27.976;2024-02-23T12:03:55;14.73;;;12.10;;
9238;SDS011;4654;43.242;27.976;2024-02-23T12:06:22;20.53;;;13.50;;
9238;SDS011;4654;43.242;27.976;2024-02-23T12:08:49;14.17;;;12.23;;
9238;SDS011;4654;43.242;27.976;2024-02-23T12:11:17;14.27;;;12.53;;
9238;SDS011;4654;43.242;27.976;2024-02-23T12:13:45;15.10;;;12.87;;
9238;SDS011;4654;43.242;27.976;2024-02-23T12:16:12;17.63;;;13.27;;
9238;SDS011;4654;43.242;27.976;2024-02-23T12:18:39;16.27;;;13.67;;
9238;SDS011;4654;43.242;27.976;2024-02-23T12:21:06;19.40;;;13.80;;
9238;SDS011;4654;43.242;27.976;2024-02-23T12:23:42;15.23;;;13.17;;
9238;SDS011;4654;43.242;27.976;2024-02-23T12:26:09;15.27;;;13.67;;
9238;SDS011;4654;43.242;27.976;2024-02-23T12:28:38;15.33;;;13.17;;
9238;SDS011;4654;43.242;27.976;2024-02-23T12:31:05;14.60;;;12.33;;
9238;SDS011;4654;43.242;27.976;2024-02-23T12:33:32;14.03;;;12.47;;
9238;SDS011;4654;43.242;27.976;2024-02-23T12:36:00;14.27;;;12.60;;
9238;SDS011;4654;43.242;27.976;2024-02-23T12:38:27;16.13;;;12.37;;
9238;SDS011;4654;43.242;27.976;2024-02-23T12:40:54;14.77;;;12.40;;
9238;SDS011;4654;43.242;27.976;2024-02-23T12:43:19;13.83;;;12.43;;
9238;SDS011;4654;43.242;27.976;2024-02-23T12:45:50;15.57;;;13.20;;
9238;SDS011;4654;43.242;27.976;2024-02-23T12:48:17;18.23;;;13.97;;
9238;SDS011;4654;43.242;27.976;2024-02-23T12:50:45;16.73;;;13.43;;
9238;SDS011;4654;43.242;27.976;2024-02-23T12:53:29;16.20;;;14.17;;
9238;SDS011;4654;43.242;27.976;2024-02-23T12:55:57;17.37;;;14.03;;
9238;SDS011;4654;43.242;27.976;2024-02-23T12:58:24;15.63;;;13.80;;
9238;SDS011;4654;43.242;27.976;2024-02-23T13:00:52;15.50;;;13.57;;
9238;SDS011;4654;43.242;27.976;2024-02-23T13:03:19;16.57;;;13.60;;
9238;SDS011;4654;43.242;27.976;2024-02-23T13:05:46;16.50;;;13.83;;
9238;SDS011;4654;43.242;27.976;2024-02-23T13:08:13;16.83;;;15.03;;
9238;SDS011;4654;43.242;27.976;2024-02-23T13:10:40;20.07;;;13.50;;
9238;SDS011;4654;43.242;27.976;2024-02-23T13:13:07;17.37;;;13.83;;
9238;SDS011;4654;43.242;27.976;2024-02-23T13:15:34;17.43;;;13.90;;
9238;SDS011;4654;43.242;27.976;2024-02-23T13:18:03;16.77;;;14.93;;
9238;SDS011;4654;43.242;27.976;2024-02-23T13:20:31;18.00;;;15.60;;
9238;SDS011;4654;43.242;27.976;2024-02-23T13:22:57;16.90;;;14.50;;
9238;SDS011;4654;43.242;27.976;2024-02-23T13:25:25;22.03;;;16.70;;
9238;SDS011;4654;43.242;27.976;2024-02-23T13:27:52;21.37;;;15.37;;
9238;SDS011;4654;43.242;27.976;2024-02-23T13:30:18;21.00;;;16.87;;
9238;SDS011;4654;43.242;27.976;2024-02-23T13:32:45;19.30;;;15.13;;
9238;SDS011;4654;43.242;27.976;2024-02-23T13:35:13;17.03;;;14.33;;
9238;SDS011;4654;43.242;27.976;2024-02-23T13:37:42;19.53;;;15.43;;
9238;SDS011;4654;43.242;27.976;2024-02-23T13:40:10;18.73;;;14.53;;
9238;SDS011;4654;43.242;27.976;2024-02-23T13:42:37;21.60;;;16.67;;
9238;SDS011;4654;43.242;27.976;2024-02-23T13:45:05;20.23;;;17.17;;
9238;SDS011;4654;43.242;27.976;2024-02-23T13:47:32;32.23;;;20.90;;
9238;SDS011;4654;43.242;27.976;2024-02-23T13:49:59;27.67;;;22.17;;
9238;SDS011;4654;43.242;27.976;2024-02-23T13:52:27;20.17;;;16.53;;
9238;SDS011;4654;43.242;27.976;2024-02-23T13:54:54;18.33;;;14.43;;
9238;SDS011;4654;43.242;27.976;2024-02-23T13:57:21;21.23;;;13.80;;
9238;SDS011;4654;43.242;27.976;2024-02-23T13:59:47;18.13;;;14.43;;
9238;SDS011;4654;43.242;27.976;2024-02-23T14:02:15;17.03;;;13.67;;
9238;SDS011;4654;43.242;27.976;2024-02-23T14:04:44;21.20;;;16.47;;
9238;SDS011;4654;43.242;27.976;2024-02-23T14:07:12;18.80;;;12.77;;
9238;SDS011;4654;43.242;27.976;2024-02-23T14:09:41;18.20;;;14.17;;
9238;SDS011;4654;43.242;27.976;2024-02-23T14:12:08;20.00;;;14.57;;
9238;SDS011;4654;43.242;27.976;2024-02-23T14:14:34;15.40;;;12.23;;
9238;SDS011;4654;43.242;27.976;2024-02-23T14:17:01;17.47;;;13.87;;
9238;SDS011;4654;43.242;27.976;2024-02-23T14:19:29;18.30;;;15.47;;
9238;SDS011;4654;43.242;27.976;2024-02-23T14:21:56;15.40;;;13.07;;
9238;SDS011;4654;43.242;27.976;2024-02-23T14:24:22;15.43;;;12.80;;
9238;SDS011;4654;43.242;27.976;2024-02-23T14:26:51;17.10;;;13.80;;
9238;SDS011;4654;43.242;27.976;2024-02-23T14:29:17;18.17;;;14.67;;
9238;SDS011;4654;43.242;27.976;2024-02-23T14:31:44;14.37;;;12.87;;
9238;SDS011;4654;43.242;27.976;2024-02-23T14:34:11;14.90;;;13.30;;
9238;SDS011;4654;43.242;27.976;2024-02-23T14:36:38;14.63;;;13.13;;
9238;SDS011;4654;43.242;27.976;2024-02-23T14:39:05;15.60;;;13.43;;
9238;SDS011;4654;43.242;27.976;2024-02-23T14:41:31;15.47;;;13.57;;